Search for airport 
image banner adimage banner ad
image banner ad

DABC - Constantine / Mohamed Boudiaf

Located in Constantine, Algeria

ICAO - DABC, IATA - CZL

Data provided by Airmate  

General information

Coordinates: N36°17'7" E6°37'9"
Elevation is 2316 feet MSL.
 
Rated:
View ratings: [VIEW]


View others Airports in Constantine Province

Operational data

Open for public use
Current time UTC:
Current local time:
Weather
METAR: DABC 122300Z 15006KT CAVOK 26/12 Q1019
TAF: TAF DABC 121700Z 1218/1318 32010KT 9999 FEW030 PROB30 TEMPO 1218/1220 FEW030TCU BECMG 1219/1222 16005KT BECMG 1307/1309 27010KT TEMPO 1313/1318 5000 -TSRA FEW023TCU BKN030
View NOTAMs / SUP AIP / TFR affecting this airport [VIEW]
Communications frequencies: [VIEW]

Runways:

RWY identifierQFULength (ft)Width (ft)SurfaceLDA (ft)
16159°9843148
34339°9843148
13136°7874148
31316°7874148

Airport contact information

Address: Constantine Algeria

Satellite view of DABC